sensor_id;sensor_type;location;lat;lon;timestamp;pressure;altitude;pressure_sealevel;temperature;humidity
85798;BME280;76244;53.434;14.484;2024-02-04T00:01:45;101303.52;;;7.71;65.44
85798;BME280;76244;53.434;14.484;2024-02-04T00:04:17;101303.52;;;7.70;65.43
85798;BME280;76244;53.434;14.484;2024-02-04T00:06:50;101306.44;;;7.67;65.66
85798;BME280;76244;53.434;14.484;2024-02-04T00:09:23;101311.26;;;7.62;65.70
85798;BME280;76244;53.434;14.484;2024-02-04T00:11:58;101305.41;;;7.59;65.75
85798;BME280;76244;53.434;14.484;2024-02-04T00:14:35;101309.87;;;7.55;65.76
85798;BME280;76244;53.434;14.484;2024-02-04T00:17:07;101306.60;;;7.50;65.74
85798;BME280;76244;53.434;14.484;2024-02-04T00:19:39;101309.34;;;7.46;65.93
85798;BME280;76244;53.434;14.484;2024-02-04T00:22:12;101304.20;;;7.44;65.94
85798;BME280;76244;53.434;14.484;2024-02-04T00:24:47;101302.11;;;7.45;65.85
85798;BME280;76244;53.434;14.484;2024-02-04T00:27:20;101301.28;;;7.47;65.87
85798;BME280;76244;53.434;14.484;2024-02-04T00:29:53;101304.49;;;7.49;65.83
85798;BME280;76244;53.434;14.484;2024-02-04T00:32:25;101300.48;;;7.50;65.73
85798;BME280;76244;53.434;14.484;2024-02-04T00:34:58;101300.84;;;7.50;65.76
85798;BME280;76244;53.434;14.484;2024-02-04T00:37:30;101310.48;;;7.50;65.64
85798;BME280;76244;53.434;14.484;2024-02-04T00:40:03;101299.55;;;7.48;65.65
85798;BME280;76244;53.434;14.484;2024-02-04T00:42:36;101290.23;;;7.47;65.67
85798;BME280;76244;53.434;14.484;2024-02-04T00:45:09;101275.49;;;7.45;65.61
85798;BME280;76244;53.434;14.484;2024-02-04T00:47:41;101264.91;;;7.42;65.64
85798;BME280;76244;53.434;14.484;2024-02-04T00:50:14;101261.73;;;7.41;65.57
85798;BME280;76244;53.434;14.484;2024-02-04T00:52:46;101258.90;;;7.39;65.63
85798;BME280;76244;53.434;14.484;2024-02-04T00:55:19;101260.61;;;7.37;65.85
85798;BME280;76244;53.434;14.484;2024-02-04T00:57:51;101261.57;;;7.33;65.72
85798;BME280;76244;53.434;14.484;2024-02-04T01:00:23;101262.08;;;7.31;65.82
85798;BME280;76244;53.434;14.484;2024-02-04T01:02:56;101256.60;;;7.30;65.92
85798;BME280;76244;53.434;14.484;2024-02-04T01:05:28;101262.31;;;7.27;65.96
85798;BME280;76244;53.434;14.484;2024-02-04T01:08:01;101256.66;;;7.24;66.09
85798;BME280;76244;53.434;14.484;2024-02-04T01:10:33;101253.97;;;7.21;66.18
85798;BME280;76244;53.434;14.484;2024-02-04T01:13:06;101259.36;;;7.20;66.04
85798;BME280;76244;53.434;14.484;2024-02-04T01:15:38;101259.52;;;7.18;66.08
85798;BME280;76244;53.434;14.484;2024-02-04T01:18:11;101257.90;;;7.17;66.04
85798;BME280;76244;53.434;14.484;2024-02-04T01:20:43;101251.06;;;7.17;66.16
85798;BME280;76244;53.434;14.484;2024-02-04T01:23:16;101247.64;;;7.20;66.07
85798;BME280;76244;53.434;14.484;2024-02-04T01:25:49;101245.55;;;7.21;65.94
85798;BME280;76244;53.434;14.484;2024-02-04T01:28:21;101250.85;;;7.23;65.89
85798;BME280;76244;53.434;14.484;2024-02-04T01:30:54;101252.66;;;7.25;65.81
85798;BME280;76244;53.434;14.484;2024-02-04T01:33:26;101251.95;;;7.25;65.86
85798;BME280;76244;53.434;14.484;2024-02-04T01:35:59;101251.08;;;7.25;65.79
85798;BME280;76244;53.434;14.484;2024-02-04T01:38:31;101245.59;;;7.23;65.75
85798;BME280;76244;53.434;14.484;2024-02-04T01:41:03;101239.41;;;7.21;65.91
85798;BME280;76244;53.434;14.484;2024-02-04T01:43:36;101245.54;;;7.20;65.95
85798;BME280;76244;53.434;14.484;2024-02-04T01:46:08;101251.57;;;7.15;65.91
85798;BME280;76244;53.434;14.484;2024-02-04T01:48:41;101249.79;;;7.13;65.91
85798;BME280;76244;53.434;14.484;2024-02-04T01:51:16;101255.83;;;7.10;66.11
85798;BME280;76244;53.434;14.484;2024-02-04T01:53:50;101252.92;;;7.05;66.17
85798;BME280;76244;53.434;14.484;2024-02-04T01:56:23;101248.35;;;7.03;66.34
85798;BME280;76244;53.434;14.484;2024-02-04T01:58:56;101253.73;;;7.02;66.09
85798;BME280;76244;53.434;14.484;2024-02-04T02:01:29;101258.75;;;6.99;66.19
85798;BME280;76244;53.434;14.484;2024-02-04T02:04:01;101258.00;;;6.97;66.13
85798;BME280;76244;53.434;14.484;2024-02-04T02:06:34;101256.86;;;6.93;66.15
85798;BME280;76244;53.434;14.484;2024-02-04T02:09:13;101254.30;;;6.88;66.30
85798;BME280;76244;53.434;14.484;2024-02-04T02:11:47;101248.11;;;6.85;66.29
85798;BME280;76244;53.434;14.484;2024-02-04T02:14:28;101247.55;;;6.84;66.39
85798;BME280;76244;53.434;14.484;2024-02-04T02:17:06;101246.86;;;6.84;66.57
85798;BME280;76244;53.434;14.484;2024-02-04T02:19:48;101241.27;;;6.85;66.38
85798;BME280;76244;53.434;14.484;2024-02-04T02:22:29;101246.23;;;6.87;66.20
85798;BME280;76244;53.434;14.484;2024-02-04T02:25:05;101236.98;;;6.88;66.04
85798;BME280;76244;53.434;14.484;2024-02-04T02:27:48;101237.55;;;6.91;65.92
85798;BME280;76244;53.434;14.484;2024-02-04T02:30:21;101233.42;;;6.94;65.80
85798;BME280;76244;53.434;14.484;2024-02-04T02:32:54;101227.30;;;6.94;65.81
85798;BME280;76244;53.434;14.484;2024-02-04T02:35:27;101225.54;;;6.94;65.71
85798;BME280;76244;53.434;14.484;2024-02-04T02:38:06;101231.69;;;6.95;65.61
85798;BME280;76244;53.434;14.484;2024-02-04T02:40:47;101235.75;;;6.96;65.63
85798;BME280;76244;53.434;14.484;2024-02-04T02:43:22;101230.48;;;6.96;65.40
85798;BME280;76244;53.434;14.484;2024-02-04T02:45:55;101236.08;;;6.95;65.32
85798;BME280;76244;53.434;14.484;2024-02-04T02:48:28;101243.73;;;6.92;65.34
85798;BME280;76244;53.434;14.484;2024-02-04T02:51:01;101248.20;;;6.89;65.32
85798;BME280;76244;53.434;14.484;2024-02-04T02:53:33;101236.40;;;6.86;65.33
85798;BME280;76244;53.434;14.484;2024-02-04T02:56:07;101225.15;;;6.84;65.42
85798;BME280;76244;53.434;14.484;2024-02-04T02:58:39;101224.08;;;6.83;65.58
85798;BME280;76244;53.434;14.484;2024-02-04T03:01:12;101219.66;;;6.81;65.49
85798;BME280;76244;53.434;14.484;2024-02-04T03:03:44;101216.98;;;6.79;65.59
85798;BME280;76244;53.434;14.484;2024-02-04T03:06:17;101214.85;;;6.78;65.52
85798;BME280;76244;53.434;14.484;2024-02-04T03:08:49;101212.20;;;6.77;65.55
85798;BME280;76244;53.434;14.484;2024-02-04T03:11:22;101210.80;;;6.76;65.75
85798;BME280;76244;53.434;14.484;2024-02-04T03:13:54;101204.83;;;6.75;65.69
85798;BME280;76244;53.434;14.484;2024-02-04T03:16:26;101202.75;;;6.76;65.88
85798;BME280;76244;53.434;14.484;2024-02-04T03:18:58;101205.02;;;6.76;65.93
85798;BME280;76244;53.434;14.484;2024-02-04T03:21:31;101206.85;;;6.80;65.72
85798;BME280;76244;53.434;14.484;2024-02-04T03:24:04;101205.72;;;6.84;65.77
85798;BME280;76244;53.434;14.484;2024-02-04T03:26:36;101197.91;;;6.87;65.71
85798;BME280;76244;53.434;14.484;2024-02-04T03:29:08;101185.73;;;6.91;65.83
85798;BME280;76244;53.434;14.484;2024-02-04T03:31:41;101181.95;;;6.95;65.75
85798;BME280;76244;53.434;14.484;2024-02-04T03:34:13;101182.86;;;6.96;65.73
85798;BME280;76244;53.434;14.484;2024-02-04T03:36:46;101181.67;;;6.97;65.82
85798;BME280;76244;53.434;14.484;2024-02-04T03:39:18;101179.23;;;6.98;65.79
85798;BME280;76244;53.434;14.484;2024-02-04T03:41:50;101183.59;;;6.98;65.94
85798;BME280;76244;53.434;14.484;2024-02-04T03:44:22;101183.08;;;6.98;65.78
85798;BME280;76244;53.434;14.484;2024-02-04T03:46:55;101183.43;;;6.98;65.91
85798;BME280;76244;53.434;14.484;2024-02-04T03:49:27;101182.36;;;6.97;66.08
85798;BME280;76244;53.434;14.484;2024-02-04T03:52:00;101179.19;;;6.96;65.83
85798;BME280;76244;53.434;14.484;2024-02-04T03:54:33;101180.06;;;6.96;65.99
85798;BME280;76244;53.434;14.484;2024-02-04T03:57:05;101174.60;;;6.94;65.92
85798;BME280;76244;53.434;14.484;2024-02-04T03:59:37;101168.23;;;6.92;66.11
85798;BME280;76244;53.434;14.484;2024-02-04T04:02:10;101167.66;;;6.89;66.38
85798;BME280;76244;53.434;14.484;2024-02-04T04:04:42;101170.27;;;6.88;66.17
85798;BME280;76244;53.434;14.484;2024-02-04T04:07:21;101172.82;;;6.84;66.38
85798;BME280;76244;53.434;14.484;2024-02-04T04:09:53;101162.62;;;6.82;66.50
85798;BME280;76244;53.434;14.484;2024-02-04T04:12:26;101162.58;;;6.81;66.59
85798;BME280;76244;53.434;14.484;2024-02-04T04:14:58;101161.76;;;6.83;66.73
85798;BME280;76244;53.434;14.484;2024-02-04T04:17:30;101160.88;;;6.82;66.66
85798;BME280;76244;53.434;14.484;2024-02-04T04:20:06;101153.16;;;6.82;66.66
85798;BME280;76244;53.434;14.484;2024-02-04T04:22:41;101158.95;;;6.82;66.72
85798;BME280;76244;53.434;14.484;2024-02-04T04:25:13;101153.51;;;6.82;66.80
85798;BME280;76244;53.434;14.484;2024-02-04T04:27:46;101144.73;;;6.81;66.72
85798;BME280;76244;53.434;14.484;2024-02-04T04:30:18;101147.86;;;6.80;66.80
85798;BME280;76244;53.434;14.484;2024-02-04T04:32:51;101149.10;;;6.81;66.73
85798;BME280;76244;53.434;14.484;2024-02-04T04:35:23;101150.81;;;6.79;66.79
85798;BME280;76244;53.434;14.484;2024-02-04T04:37:56;101151.49;;;6.78;66.79
85798;BME280;76244;53.434;14.484;2024-02-04T04:40:28;101142.58;;;6.79;66.98
85798;BME280;76244;53.434;14.484;2024-02-04T04:43:00;101146.63;;;6.79;66.77
85798;BME280;76244;53.434;14.484;2024-02-04T04:45:33;101146.58;;;6.77;66.79
85798;BME280;76244;53.434;14.484;2024-02-04T04:48:07;101136.36;;;6.75;67.03
85798;BME280;76244;53.434;14.484;2024-02-04T04:50:40;101134.81;;;6.75;66.92
85798;BME280;76244;53.434;14.484;2024-02-04T04:53:13;101127.44;;;6.75;67.02
85798;BME280;76244;53.434;14.484;2024-02-04T04:55:46;101114.84;;;6.75;67.06
85798;BME280;76244;53.434;14.484;2024-02-04T04:58:18;101115.02;;;6.75;67.16
85798;BME280;76244;53.434;14.484;2024-02-04T05:00:51;101116.47;;;6.77;67.17
85798;BME280;76244;53.434;14.484;2024-02-04T05:03:23;101114.42;;;6.80;67.14
85798;BME280;76244;53.434;14.484;2024-02-04T05:05:56;101111.52;;;6.84;67.15
85798;BME280;76244;53.434;14.484;2024-02-04T05:08:28;101115.44;;;6.86;67.20
85798;BME280;76244;53.434;14.484;2024-02-04T05:11:00;101114.22;;;6.87;67.20
85798;BME280;76244;53.434;14.484;2024-02-04T05:13:33;101114.66;;;6.91;67.31
85798;BME280;76244;53.434;14.484;2024-02-04T05:16:06;101120.46;;;6.92;67.27
85798;BME280;76244;53.434;14.484;2024-02-04T05:18:38;101118.40;;;6.94;67.29
85798;BME280;76244;53.434;14.484;2024-02-04T05:21:11;101114.21;;;6.96;67.27
85798;BME280;76244;53.434;14.484;2024-02-04T05:23:44;101118.63;;;6.97;67.44
85798;BME280;76244;53.434;14.484;2024-02-04T05:26:18;101118.64;;;6.97;67.50
85798;BME280;76244;53.434;14.484;2024-02-04T05:28:51;101123.36;;;6.97;67.45
85798;BME280;76244;53.434;14.484;2024-02-04T05:31:23;101113.89;;;6.96;67.52
85798;BME280;76244;53.434;14.484;2024-02-04T05:33:57;101108.29;;;6.97;67.58
85798;BME280;76244;53.434;14.484;2024-02-04T05:36:29;101105.32;;;6.97;67.54
85798;BME280;76244;53.434;14.484;2024-02-04T05:39:11;101104.98;;;6.98;67.61
85798;BME280;76244;53.434;14.484;2024-02-04T05:41:44;101104.70;;;7.00;67.52
85798;BME280;76244;53.434;14.484;2024-02-04T05:44:17;101100.68;;;7.02;67.59
85798;BME280;76244;53.434;14.484;2024-02-04T05:46:49;101101.62;;;7.04;67.52
85798;BME280;76244;53.434;14.484;2024-02-04T05:49:22;101104.10;;;7.06;67.58
85798;BME280;76244;53.434;14.484;2024-02-04T05:51:55;101099.77;;;7.08;67.59
85798;BME280;76244;53.434;14.484;2024-02-04T05:54:28;101103.27;;;7.08;67.63
85798;BME280;76244;53.434;14.484;2024-02-04T05:57:01;101105.84;;;7.06;67.64
85798;BME280;76244;53.434;14.484;2024-02-04T05:59:33;101100.77;;;7.06;67.72
85798;BME280;76244;53.434;14.484;2024-02-04T06:02:06;101095.49;;;7.05;67.91
85798;BME280;76244;53.434;14.484;2024-02-04T06:04:38;101088.11;;;7.04;67.87
85798;BME280;76244;53.434;14.484;2024-02-04T06:07:11;101074.30;;;7.03;67.97
85798;BME280;76244;53.434;14.484;2024-02-04T06:09:43;101073.54;;;7.02;68.02
85798;BME280;76244;53.434;14.484;2024-02-04T06:12:15;101069.70;;;7.02;68.01
85798;BME280;76244;53.434;14.484;2024-02-04T06:14:47;101065.30;;;7.01;68.11
85798;BME280;76244;53.434;14.484;2024-02-04T06:17:20;101066.55;;;7.02;68.02
85798;BME280;76244;53.434;14.484;2024-02-04T06:19:52;101077.45;;;7.04;67.94
85798;BME280;76244;53.434;14.484;2024-02-04T06:22:24;101081.20;;;7.09;68.05
85798;BME280;76244;53.434;14.484;2024-02-04T06:24:57;101080.42;;;7.13;68.01
85798;BME280;76244;53.434;14.484;2024-02-04T06:27:29;101080.64;;;7.16;67.88
85798;BME280;76244;53.434;14.484;2024-02-04T06:30:03;101091.52;;;7.17;67.93
85798;BME280;76244;53.434;14.484;2024-02-04T06:32:40;101089.05;;;7.17;67.74
85798;BME280;76244;53.434;14.484;2024-02-04T06:35:13;101082.91;;;7.17;67.68
85798;BME280;76244;53.434;14.484;2024-02-04T06:37:46;101076.42;;;7.16;67.76
85798;BME280;76244;53.434;14.484;2024-02-04T06:40:19;101078.05;;;7.17;67.52
85798;BME280;76244;53.434;14.484;2024-02-04T06:42:51;101078.59;;;7.18;67.44
85798;BME280;76244;53.434;14.484;2024-02-04T06:45:23;101085.25;;;7.20;67.40
85798;BME280;76244;53.434;14.484;2024-02-04T06:47:56;101084.05;;;7.20;67.33
85798;BME280;76244;53.434;14.484;2024-02-04T06:50:29;101074.76;;;7.20;67.16
85798;BME280;76244;53.434;14.484;2024-02-04T06:53:02;101064.98;;;7.22;67.18
85798;BME280;76244;53.434;14.484;2024-02-04T06:55:34;101059.73;;;7.21;67.12
85798;BME280;76244;53.434;14.484;2024-02-04T06:58:07;101058.45;;;7.20;67.05
85798;BME280;76244;53.434;14.484;2024-02-04T07:00:39;101068.59;;;7.18;67.01
85798;BME280;76244;53.434;14.484;2024-02-04T07:03:12;101066.13;;;7.17;66.90
85798;BME280;76244;53.434;14.484;2024-02-04T07:05:45;101059.13;;;7.18;66.97
85798;BME280;76244;53.434;14.484;2024-02-04T07:08:18;101051.99;;;7.21;66.90
85798;BME280;76244;53.434;14.484;2024-02-04T07:10:51;101062.74;;;7.24;66.69
85798;BME280;76244;53.434;14.484;2024-02-04T07:13:24;101060.16;;;7.27;66.78
85798;BME280;76244;53.434;14.484;2024-02-04T07:15:57;101061.44;;;7.29;66.79
85798;BME280;76244;53.434;14.484;2024-02-04T07:18:30;101054.80;;;7.30;66.63
85798;BME280;76244;53.434;14.484;2024-02-04T07:21:02;101049.59;;;7.33;66.61
85798;BME280;76244;53.434;14.484;2024-02-04T07:23:36;101048.95;;;7.37;66.56
85798;BME280;76244;53.434;14.484;2024-02-04T07:26:08;101043.16;;;7.37;66.60
85798;BME280;76244;53.434;14.484;2024-02-04T07:28:40;101045.08;;;7.36;66.61
85798;BME280;76244;53.434;14.484;2024-02-04T07:31:13;101048.20;;;7.34;66.64
85798;BME280;76244;53.434;14.484;2024-02-04T07:33:45;101049.05;;;7.32;66.63
85798;BME280;76244;53.434;14.484;2024-02-04T07:36:18;101045.33;;;7.30;66.46
85798;BME280;76244;53.434;14.484;2024-02-04T07:38:50;101040.41;;;7.28;66.65
85798;BME280;76244;53.434;14.484;2024-02-04T07:41:26;101042.45;;;7.26;66.70
85798;BME280;76244;53.434;14.484;2024-02-04T07:43:58;101039.09;;;7.24;66.68
85798;BME280;76244;53.434;14.484;2024-02-04T07:46:31;101034.90;;;7.24;66.77
85798;BME280;76244;53.434;14.484;2024-02-04T07:49:03;101042.27;;;7.25;66.69
85798;BME280;76244;53.434;14.484;2024-02-04T07:51:35;101035.84;;;7.27;66.71
85798;BME280;76244;53.434;14.484;2024-02-04T07:54:09;101029.95;;;7.32;66.46
85798;BME280;76244;53.434;14.484;2024-02-04T07:56:43;101026.70;;;7.36;66.37
85798;BME280;76244;53.434;14.484;2024-02-04T07:59:16;101023.08;;;7.41;66.41
85798;BME280;76244;53.434;14.484;2024-02-04T08:01:48;101021.74;;;7.45;66.29
85798;BME280;76244;53.434;14.484;2024-02-04T08:04:21;101024.63;;;7.48;66.08
85798;BME280;76244;53.434;14.484;2024-02-04T08:06:54;101021.69;;;7.51;66.16
85798;BME280;76244;53.434;14.484;2024-02-04T08:09:27;101013.64;;;7.52;65.88
85798;BME280;76244;53.434;14.484;2024-02-04T08:11:59;101005.42;;;7.54;65.87
85798;BME280;76244;53.434;14.484;2024-02-04T08:14:31;101003.33;;;7.54;65.68
85798;BME280;76244;53.434;14.484;2024-02-04T08:17:04;101006.63;;;7.52;65.68
85798;BME280;76244;53.434;14.484;2024-02-04T08:19:37;101006.29;;;7.52;65.78
85798;BME280;76244;53.434;14.484;2024-02-04T08:22:09;101003.14;;;7.52;65.76
85798;BME280;76244;53.434;14.484;2024-02-04T08:24:42;101002.27;;;7.53;65.78
85798;BME280;76244;53.434;14.484;2024-02-04T08:27:14;100996.50;;;7.54;65.70
85798;BME280;76244;53.434;14.484;2024-02-04T08:29:49;101004.92;;;7.55;65.59
85798;BME280;76244;53.434;14.484;2024-02-04T08:32:21;100999.85;;;7.55;65.48
85798;BME280;76244;53.434;14.484;2024-02-04T08:34:53;100994.75;;;7.54;65.29
85798;BME280;76244;53.434;14.484;2024-02-04T08:37:26;100996.48;;;7.53;65.44
85798;BME280;76244;53.434;14.484;2024-02-04T08:39:58;100992.11;;;7.54;65.38
85798;BME280;76244;53.434;14.484;2024-02-04T08:42:31;100992.64;;;7.54;65.26
85798;BME280;76244;53.434;14.484;2024-02-04T08:45:04;100994.73;;;7.52;65.25
85798;BME280;76244;53.434;14.484;2024-02-04T08:47:37;100989.42;;;7.50;65.51
85798;BME280;76244;53.434;14.484;2024-02-04T08:50:11;100990.81;;;7.49;65.46
85798;BME280;76244;53.434;14.484;2024-02-04T08:52:44;100992.02;;;7.48;65.36
85798;BME280;76244;53.434;14.484;2024-02-04T08:55:17;100981.02;;;7.50;65.38
85798;BME280;76244;53.434;14.484;2024-02-04T08:57:52;100979.68;;;7.55;65.24
85798;BME280;76244;53.434;14.484;2024-02-04T09:00:25;100978.16;;;7.58;65.17
85798;BME280;76244;53.434;14.484;2024-02-04T09:02:57;100979.27;;;7.61;65.15
85798;BME280;76244;53.434;14.484;2024-02-04T09:05:30;100978.42;;;7.62;65.10
85798;BME280;76244;53.434;14.484;2024-02-04T09:08:03;100970.35;;;7.63;65.02
85798;BME280;76244;53.434;14.484;2024-02-04T09:10:35;100968.08;;;7.64;65.00
85798;BME280;76244;53.434;14.484;2024-02-04T09:13:09;100963.17;;;7.63;64.85
85798;BME280;76244;53.434;14.484;2024-02-04T09:15:42;100973.67;;;7.62;64.89
85798;BME280;76244;53.434;14.484;2024-02-04T09:18:14;100977.14;;;7.60;64.89
85798;BME280;76244;53.434;14.484;2024-02-04T09:20:47;100967.81;;;7.58;64.81
85798;BME280;76244;53.434;14.484;2024-02-04T09:23:20;100972.35;;;7.57;64.72
85798;BME280;76244;53.434;14.484;2024-02-04T09:25:52;100970.77;;;7.57;64.88
85798;BME280;76244;53.434;14.484;2024-02-04T09:28:25;100971.83;;;7.57;64.93
85798;BME280;76244;53.434;14.484;2024-02-04T09:30:57;100975.87;;;7.58;65.03
85798;BME280;76244;53.434;14.484;2024-02-04T09:33:30;100969.26;;;7.60;65.24
85798;BME280;76244;53.434;14.484;2024-02-04T09:36:04;100971.37;;;7.61;65.07
85798;BME280;76244;53.434;14.484;2024-02-04T09:38:38;100974.73;;;7.62;64.91
85798;BME280;76244;53.434;14.484;2024-02-04T09:41:10;100978.81;;;7.66;65.00
85798;BME280;76244;53.434;14.484;2024-02-04T09:43:43;100977.80;;;7.69;64.88
85798;BME280;76244;53.434;14.484;2024-02-04T09:46:16;100974.15;;;7.71;64.59
85798;BME280;76244;53.434;14.484;2024-02-04T09:48:50;100963.29;;;7.72;64.56
85798;BME280;76244;53.434;14.484;2024-02-04T09:51:23;100957.71;;;7.74;64.57
85798;BME280;76244;53.434;14.484;2024-02-04T09:54:02;100958.96;;;7.76;64.46
85798;BME280;76244;53.434;14.484;2024-02-04T09:56:38;100954.08;;;7.77;64.42
85798;BME280;76244;53.434;14.484;2024-02-04T09:59:12;100957.06;;;7.79;64.17
85798;BME280;76244;53.434;14.484;2024-02-04T10:01:45;100950.27;;;7.79;64.22
85798;BME280;76244;53.434;14.484;2024-02-04T10:04:19;100946.92;;;7.80;64.01
85798;BME280;76244;53.434;14.484;2024-02-04T10:06:52;100946.92;;;7.80;64.05
85798;BME280;76244;53.434;14.484;2024-02-04T10:09:25;100950.95;;;7.80;64.17
85798;BME280;76244;53.434;14.484;2024-02-04T10:11:58;100946.57;;;7.79;63.86
85798;BME280;76244;53.434;14.484;2024-02-04T10:14:31;100939.34;;;7.76;63.92
85798;BME280;76244;53.434;14.484;2024-02-04T10:17:05;100937.38;;;7.75;64.05
85798;BME280;76244;53.434;14.484;2024-02-04T10:19:39;100930.90;;;7.76;64.25
85798;BME280;76244;53.434;14.484;2024-02-04T10:22:11;100930.40;;;7.77;64.05
85798;BME280;76244;53.434;14.484;2024-02-04T10:24:44;100927.64;;;7.80;64.04
85798;BME280;76244;53.434;14.484;2024-02-04T10:27:18;100921.56;;;7.84;64.04
85798;BME280;76244;53.434;14.484;2024-02-04T10:30:02;100917.91;;;7.87;64.00
85798;BME280;76244;53.434;14.484;2024-02-04T10:32:35;100918.98;;;7.88;63.67
85798;BME280;76244;53.434;14.484;2024-02-04T10:35:08;100920.71;;;7.86;63.85
85798;BME280;76244;53.434;14.484;2024-02-04T10:37:41;100915.79;;;7.85;63.89
85798;BME280;76244;53.434;14.484;2024-02-04T10:40:16;100916.66;;;7.85;63.99
85798;BME280;76244;53.434;14.484;2024-02-04T10:42:50;100914.73;;;7.84;64.08
85798;BME280;76244;53.434;14.484;2024-02-04T10:45:25;100906.31;;;7.84;64.09
85798;BME280;76244;53.434;14.484;2024-02-04T10:48:02;100911.40;;;7.84;64.11
85798;BME280;76244;53.434;14.484;2024-02-04T10:50:37;100911.75;;;7.84;64.11
85798;BME280;76244;53.434;14.484;2024-02-04T10:53:14;100907.36;;;7.84;64.01
85798;BME280;76244;53.434;14.484;2024-02-04T10:55:47;100899.29;;;7.83;64.12
85798;BME280;76244;53.434;14.484;2024-02-04T10:58:21;100891.73;;;7.82;64.11
85798;BME280;76244;53.434;14.484;2024-02-04T11:00:55;100892.63;;;7.84;64.17
85798;BME280;76244;53.434;14.484;2024-02-04T11:03:28;100876.69;;;7.84;63.95
85798;BME280;76244;53.434;14.484;2024-02-04T11:06:02;100876.16;;;7.84;63.93
85798;BME280;76244;53.434;14.484;2024-02-04T11:08:35;100866.52;;;7.84;63.91
85798;BME280;76244;53.434;14.484;2024-02-04T11:11:10;100861.05;;;7.82;63.68
85798;BME280;76244;53.434;14.484;2024-02-04T11:13:45;100865.42;;;7.81;63.96
85798;BME280;76244;53.434;14.484;2024-02-04T11:16:27;100862.44;;;7.81;63.89
85798;BME280;76244;53.434;14.484;2024-02-04T11:19:19;100865.95;;;7.80;64.06
85798;BME280;76244;53.434;14.484;2024-02-04T11:22:14;100862.80;;;7.80;64.07
85798;BME280;76244;53.434;14.484;2024-02-04T11:25:12;100852.27;;;7.80;63.92
85798;BME280;76244;53.434;14.484;2024-02-04T11:27:48;100853.67;;;7.80;63.78
85798;BME280;76244;53.434;14.484;2024-02-04T11:30:21;100852.77;;;7.79;63.76
85798;BME280;76244;53.434;14.484;2024-02-04T11:32:55;100841.37;;;7.78;63.92
85798;BME280;76244;53.434;14.484;2024-02-04T11:35:27;100848.38;;;7.78;63.69
85798;BME280;76244;53.434;14.484;2024-02-04T11:38:00;100836.44;;;7.77;63.82
85798;BME280;76244;53.434;14.484;2024-02-04T11:40:35;100834.70;;;7.77;64.12
85798;BME280;76244;53.434;14.484;2024-02-04T11:43:11;100835.79;;;7.80;63.77
85798;BME280;76244;53.434;14.484;2024-02-04T11:45:45;100842.80;;;7.81;63.79
85798;BME280;76244;53.434;14.484;2024-02-04T11:48:18;100840.17;;;7.80;63.82
85798;BME280;76244;53.434;14.484;2024-02-04T11:50:55;100844.38;;;7.80;63.77
85798;BME280;76244;53.434;14.484;2024-02-04T11:53:28;100837.72;;;7.81;63.55
85798;BME280;76244;53.434;14.484;2024-02-04T11:56:05;100839.30;;;7.82;63.37
85798;BME280;76244;53.434;14.484;2024-02-04T11:58:38;100840.01;;;7.81;63.52
85798;BME280;76244;53.434;14.484;2024-02-04T12:01:12;100835.80;;;7.82;63.56
85798;BME280;76244;53.434;14.484;2024-02-04T12:03:45;100840.02;;;7.82;63.29
85798;BME280;76244;53.434;14.484;2024-02-04T12:06:18;100836.33;;;7.82;63.29
85798;BME280;76244;53.434;14.484;2024-02-04T12:08:51;100841.92;;;7.81;63.28
85798;BME280;76244;53.434;14.484;2024-02-04T12:11:25;100838.78;;;7.82;63.28
85798;BME280;76244;53.434;14.484;2024-02-04T12:13:58;100834.77;;;7.83;63.15
85798;BME280;76244;53.434;14.484;2024-02-04T12:16:33;100831.26;;;7.83;63.11
85798;BME280;76244;53.434;14.484;2024-02-04T12:19:07;100835.27;;;7.82;62.75
85798;BME280;76244;53.434;14.484;2024-02-04T12:21:39;100838.44;;;7.82;63.01
85798;BME280;76244;53.434;14.484;2024-02-04T12:24:12;100826.17;;;7.82;63.04
85798;BME280;76244;53.434;14.484;2024-02-04T12:26:44;100828.47;;;7.83;62.91
85798;BME280;76244;53.434;14.484;2024-02-04T12:29:18;100821.80;;;7.84;63.03
85798;BME280;76244;53.434;14.484;2024-02-04T12:31:59;100826.37;;;7.85;62.86
85798;BME280;76244;53.434;14.484;2024-02-04T12:34:31;100823.56;;;7.86;62.71
85798;BME280;76244;53.434;14.484;2024-02-04T12:37:06;100825.66;;;7.85;62.59
85798;BME280;76244;53.434;14.484;2024-02-04T12:39:38;100835.14;;;7.84;62.63
85798;BME280;76244;53.434;14.484;2024-02-04T12:42:11;100828.46;;;7.84;62.64
85798;BME280;76244;53.434;14.484;2024-02-04T12:44:49;100831.07;;;7.82;62.53
85798;BME280;76244;53.434;14.484;2024-02-04T12:47:23;100835.45;;;7.82;62.51
85798;BME280;76244;53.434;14.484;2024-02-04T12:50:02;100831.07;;;7.82;62.55
85798;BME280;76244;53.434;14.484;2024-02-04T12:52:34;100824.05;;;7.81;62.82
85798;BME280;76244;53.434;14.484;2024-02-04T12:55:09;100824.74;;;7.80;62.82
85798;BME280;76244;53.434;14.484;2024-02-04T12:58:02;100823.50;;;7.79;62.96
85798;BME280;76244;53.434;14.484;2024-02-04T13:00:36;100822.96;;;7.78;62.98
85798;BME280;76244;53.434;14.484;2024-02-04T13:03:10;100819.97;;;7.77;63.00
85798;BME280;76244;53.434;14.484;2024-02-04T13:05:42;100829.27;;;7.77;63.11
85798;BME280;76244;53.434;14.484;2024-02-04T13:08:19;100828.74;;;7.76;63.08
85798;BME280;76244;53.434;14.484;2024-02-04T13:10:54;100819.80;;;7.77;63.17
85798;BME280;76244;53.434;14.484;2024-02-04T13:13:27;100813.14;;;7.77;63.30
85798;BME280;76244;53.434;14.484;2024-02-04T13:15:59;100810.16;;;7.78;63.39
85798;BME280;76244;53.434;14.484;2024-02-04T13:18:33;100813.02;;;7.82;63.55
85798;BME280;76244;53.434;14.484;2024-02-04T13:21:05;100806.58;;;7.87;63.15
85798;BME280;76244;53.434;14.484;2024-02-04T13:23:38;100806.61;;;7.90;63.25